Terminal Aerodrome Forecast
Issued by NWS Albany, NY

Home | Current Version | Previous Version | Text Only | Print | Product List | Glossary On
Versions: 1 2 3 4 5 6 7 8 9 10 11 12 13 14 15 16 17 18 19 20 21 22 23 24 25 26
000
FTUS41 KALY 231135
TAFALB
TAF
KALB 231135Z 2312/2412 16009KT 5SM -RA BR SCT008 OVC012
      WS020/18040KT
      TEMPO 2312/2313 2SM RA BR OVC008
     FM231300 16010KT 2SM RA BR OVC008 WS020/18040KT
      TEMPO 2313/2317 1SM +RA BR OVC005
     FM231900 19008KT 6SM -SHRA BR OVC020
     FM240000 24011KT P6SM VCSH OVC050
     FM240500 27016G27KT P6SM OVC035=

USA.gov is the U.S. government's official web portal to all federal, state and local government web resources and services.